createdAt,value
2022-10-12T00:01:02.904Z,8.40
2022-10-12T00:03:31.126Z,8.53
2022-10-12T00:06:05.415Z,8.83
2022-10-12T00:08:34.614Z,8.63
2022-10-12T00:11:03.045Z,8.67
2022-10-12T00:13:32.890Z,9.53
2022-10-12T00:16:04.524Z,9.53
2022-10-12T00:18:33.078Z,9.13
2022-10-12T00:21:05.718Z,8.47
2022-10-12T00:23:35.406Z,9.40
2022-10-12T00:26:06.615Z,9.27
2022-10-12T00:28:37.368Z,8.27
2022-10-12T00:31:09.806Z,8.93
2022-10-12T00:33:39.088Z,9.37
2022-10-12T00:36:19.455Z,8.60
2022-10-12T00:38:48.752Z,8.87
2022-10-12T00:41:20.105Z,8.53
2022-10-12T00:43:55.424Z,8.37
2022-10-12T00:46:34.672Z,8.47
2022-10-12T00:49:11.555Z,8.87
2022-10-12T00:51:41.310Z,8.53
2022-10-12T00:54:14.286Z,8.90
2022-10-12T00:56:46.099Z,8.83
2022-10-12T00:59:23.892Z,9.17
2022-10-12T01:01:52.166Z,9.10
2022-10-12T01:04:20.603Z,9.00
2022-10-12T01:06:48.862Z,9.70
2022-10-12T01:09:17.570Z,8.93
2022-10-12T01:11:45.749Z,9.27
2022-10-12T01:14:15.560Z,9.00
2022-10-12T01:16:53.586Z,8.77
2022-10-12T01:20:12.669Z,8.80
2022-10-12T01:22:48.419Z,8.83
2022-10-12T01:25:34.737Z,8.80
2022-10-12T01:28:14.891Z,8.27
2022-10-12T01:30:49.890Z,8.43
2022-10-12T01:33:29.683Z,8.67
2022-10-12T01:36:08.000Z,9.53
2022-10-12T01:38:49.292Z,11.17
2022-10-12T01:41:22.002Z,10.00
2022-10-12T01:43:53.108Z,9.87
2022-10-12T01:46:46.116Z,10.00
2022-10-12T01:49:18.395Z,9.93
2022-10-12T01:52:20.396Z,10.50
2022-10-12T01:55:25.899Z,10.30
2022-10-12T01:58:19.217Z,10.07
2022-10-12T02:01:00.432Z,9.03
2022-10-12T02:03:38.780Z,9.37
2022-10-12T02:06:11.101Z,9.50
2022-10-12T02:08:47.738Z,9.63
2022-10-12T02:11:19.674Z,10.07
2022-10-12T02:13:53.851Z,9.73
2022-10-12T02:16:27.011Z,10.50
2022-10-12T02:18:58.867Z,9.83
2022-10-12T02:21:32.841Z,10.77
2022-10-12T02:24:05.464Z,10.93
2022-10-12T02:26:36.762Z,11.30
2022-10-12T02:29:14.765Z,11.13
2022-10-12T02:31:53.308Z,11.43
2022-10-12T02:34:26.866Z,11.83
2022-10-12T02:37:05.825Z,11.50
2022-10-12T02:39:40.679Z,9.83
2022-10-12T02:42:13.605Z,10.27
2022-10-12T02:44:44.138Z,8.90
2022-10-12T02:47:14.193Z,9.40
2022-10-12T02:49:46.020Z,9.33
2022-10-12T02:52:14.317Z,10.27
2022-10-12T02:54:42.689Z,9.67
2022-10-12T02:57:10.989Z,10.23
2022-10-12T02:59:39.294Z,10.40
2022-10-12T03:02:08.897Z,11.07
2022-10-12T03:04:37.303Z,9.60
2022-10-12T03:07:06.983Z,8.97
2022-10-12T03:09:35.269Z,8.93
2022-10-12T03:12:03.547Z,10.47
2022-10-12T03:14:33.184Z,10.27
2022-10-12T03:17:01.789Z,10.27
2022-10-12T03:19:30.059Z,11.07
2022-10-12T03:21:58.311Z,9.20
2022-10-12T03:24:27.964Z,8.23
2022-10-12T03:26:56.186Z,7.50
2022-10-12T03:29:24.451Z,7.03
2022-10-12T03:31:52.708Z,7.50
2022-10-12T03:34:20.998Z,7.40
2022-10-12T03:36:49.259Z,8.37
2022-10-12T03:39:17.534Z,7.30
2022-10-12T03:41:47.148Z,6.83
2022-10-12T03:44:15.396Z,6.73
2022-10-12T03:46:43.697Z,6.93
2022-10-12T03:49:11.971Z,7.73
2022-10-12T03:51:40.208Z,7.00
2022-10-12T03:54:08.449Z,6.87
2022-10-12T03:56:36.713Z,6.53
2022-10-12T03:59:06.802Z,6.90
2022-10-12T04:01:35.158Z,7.60
2022-10-12T04:04:03.493Z,8.00
2022-10-12T04:06:31.735Z,7.00
2022-10-12T04:09:00.016Z,6.27
2022-10-12T04:11:28.680Z,6.30
2022-10-12T04:13:56.911Z,6.20
2022-10-12T04:16:28.833Z,6.57
2022-10-12T04:18:59.346Z,6.80
2022-10-12T04:21:30.142Z,6.03
2022-10-12T04:23:58.471Z,5.40
2022-10-12T04:26:26.739Z,4.50
2022-10-12T04:28:55.017Z,5.30
2022-10-12T04:31:23.362Z,4.77
2022-10-12T04:33:56.909Z,5.23
2022-10-12T04:36:25.634Z,5.20
2022-10-12T04:38:58.390Z,5.17
2022-10-12T04:41:29.438Z,5.63
2022-10-12T04:43:57.734Z,6.80
2022-10-12T04:46:26.070Z,6.73
2022-10-12T04:48:55.737Z,6.63
2022-10-12T04:51:24.816Z,6.63
2022-10-12T04:53:53.129Z,7.70
2022-10-12T04:56:21.400Z,7.30
2022-10-12T04:58:49.709Z,7.17
2022-10-12T05:01:18.007Z,8.30
2022-10-12T05:03:46.418Z,8.43
2022-10-12T05:06:16.103Z,8.57
2022-10-12T05:08:44.394Z,9.80
2022-10-12T05:11:12.779Z,9.33
2022-10-12T05:13:41.068Z,10.80
2022-10-12T05:16:09.410Z,8.47
2022-10-12T05:18:37.662Z,8.20
2022-10-12T05:21:06.209Z,7.67
2022-10-12T05:23:35.823Z,7.70
2022-10-12T05:26:04.423Z,7.83
2022-10-12T05:28:37.011Z,7.50
2022-10-12T05:31:08.263Z,6.83
2022-10-12T05:33:36.565Z,8.23
2022-10-12T05:36:05.434Z,8.47
2022-10-12T05:38:35.073Z,9.27
2022-10-12T05:41:03.357Z,10.90
2022-10-12T05:43:31.633Z,12.43
2022-10-12T05:45:59.883Z,12.13
2022-10-12T05:48:28.114Z,13.17
2022-10-12T05:50:56.736Z,14.27
2022-10-12T05:53:25.727Z,15.63
2022-10-12T05:55:57.186Z,14.63
2022-10-12T05:58:26.354Z,14.57
2022-10-12T06:00:55.344Z,14.30
2022-10-12T06:03:26.188Z,14.27
2022-10-12T06:05:56.824Z,14.47
2022-10-12T06:08:25.079Z,14.73
2022-10-12T06:10:54.954Z,13.83
2022-10-12T06:13:23.736Z,14.10
2022-10-12T06:15:52.402Z,13.60
2022-10-12T06:18:21.423Z,12.53
2022-10-12T06:20:56.517Z,12.27
2022-10-12T06:23:37.284Z,12.37
2022-10-12T06:26:07.290Z,11.83
2022-10-12T06:28:35.622Z,11.10
2022-10-12T06:31:03.927Z,11.60
2022-10-12T06:33:32.165Z,11.63
2022-10-12T06:36:00.417Z,10.73
2022-10-12T06:38:54.039Z,10.93
2022-10-12T06:41:23.684Z,11.80
2022-10-12T06:43:51.944Z,12.33
2022-10-12T06:46:20.210Z,12.43
2022-10-12T06:48:48.517Z,12.50
2022-10-12T06:51:16.784Z,12.70
2022-10-12T06:53:45.044Z,13.17
2022-10-12T06:56:13.798Z,13.33
2022-10-12T06:58:43.422Z,12.70
2022-10-12T07:01:11.753Z,13.40
2022-10-12T07:03:40.213Z,12.27
2022-10-12T07:06:11.580Z,12.50
2022-10-12T07:08:41.168Z,12.70
2022-10-12T07:11:15.082Z,13.53
2022-10-12T07:13:44.629Z,13.07
2022-10-12T07:16:12.917Z,12.70
2022-10-12T07:18:41.168Z,12.53
2022-10-12T07:21:09.532Z,12.77
2022-10-12T07:23:42.523Z,12.73
2022-10-12T07:26:14.076Z,13.03
2022-10-12T07:28:42.360Z,13.80
2022-10-12T07:31:12.257Z,14.27
2022-10-12T07:33:40.552Z,14.40
2022-10-12T07:36:14.423Z,15.33
2022-10-12T07:38:45.772Z,14.37
2022-10-12T07:41:14.673Z,14.60
2022-10-12T07:43:43.528Z,14.67
2022-10-12T07:46:13.533Z,14.67
2022-10-12T07:48:45.914Z,14.83
2022-10-12T07:51:15.796Z,14.93
2022-10-12T07:53:44.095Z,16.23
2022-10-12T07:56:15.935Z,15.80
2022-10-12T07:58:44.945Z,15.30
2022-10-12T08:01:14.601Z,15.23
2022-10-12T08:03:49.086Z,14.00
2022-10-12T08:06:21.283Z,13.57
2022-10-12T08:08:50.472Z,13.10
2022-10-12T08:11:20.336Z,14.67
2022-10-12T08:13:49.328Z,15.17
2022-10-12T08:16:21.805Z,17.90
2022-10-12T08:18:50.339Z,18.40
2022-10-12T08:21:19.137Z,17.97
2022-10-12T08:23:47.693Z,17.80
2022-10-12T08:26:16.911Z,19.53
2022-10-12T08:28:45.377Z,18.97
2022-10-12T08:31:16.495Z,19.43
2022-10-12T08:33:46.230Z,18.80
2022-10-12T08:36:15.133Z,16.93
2022-10-12T08:38:44.389Z,16.60
2022-10-12T08:41:41.046Z,16.03
2022-10-12T08:44:52.346Z,16.87
2022-10-12T08:47:28.520Z,16.67
2022-10-12T08:50:00.280Z,16.70
2022-10-12T08:52:59.253Z,15.90
2022-10-12T08:55:37.239Z,19.23
2022-10-12T08:58:12.196Z,19.43
2022-10-12T09:00:40.557Z,18.97
2022-10-12T09:03:20.197Z,19.07
2022-10-12T09:05:56.571Z,19.77
2022-10-12T09:08:35.528Z,20.20
2022-10-12T09:11:21.892Z,19.77
2022-10-12T09:14:04.662Z,18.93
2022-10-12T09:16:37.394Z,19.33
2022-10-12T09:19:14.740Z,18.50
2022-10-12T09:21:46.042Z,18.30
2022-10-12T09:24:20.440Z,18.87
2022-10-12T09:26:53.908Z,18.43
2022-10-12T09:29:26.688Z,19.73
2022-10-12T09:32:29.434Z,19.73
2022-10-12T09:34:58.006Z,19.13
2022-10-12T09:37:31.757Z,19.17
2022-10-12T09:40:00.558Z,17.73
2022-10-12T09:42:28.851Z,18.30
2022-10-12T09:45:05.171Z,19.40
2022-10-12T09:47:34.753Z,20.40
2022-10-12T09:50:06.827Z,17.80
2022-10-12T09:52:44.494Z,18.30
2022-10-12T09:58:02.689Z,17.50
2022-10-12T10:00:33.915Z,19.00
2022-10-12T10:03:04.164Z,16.55
2022-10-12T10:05:34.891Z,17.70
2022-10-12T10:08:20.960Z,18.17
2022-10-12T10:10:51.966Z,16.92
2022-10-12T10:13:22.006Z,17.05
2022-10-12T10:15:53.461Z,19.20
2022-10-12T10:18:35.254Z,18.77
2022-10-12T10:21:06.483Z,17.70
2022-10-12T10:23:44.317Z,18.02
2022-10-12T10:26:19.395Z,17.88
2022-10-12T10:28:49.565Z,18.15
2022-10-12T10:31:23.163Z,17.85
2022-10-12T10:34:13.028Z,17.77
2022-10-12T10:36:46.638Z,17.88
2022-10-12T10:39:22.404Z,17.70
2022-10-12T10:41:51.841Z,17.15
2022-10-12T10:44:30.893Z,17.45
2022-10-12T10:47:03.699Z,17.35
2022-10-12T10:49:41.560Z,16.63
2022-10-12T10:52:24.564Z,16.98
2022-10-12T10:55:18.723Z,17.17
2022-10-12T10:57:58.071Z,17.25
2022-10-12T11:00:38.396Z,16.30
2022-10-12T11:03:14.796Z,17.05
2022-10-12T11:05:48.266Z,15.93
2022-10-12T11:08:23.316Z,16.13
2022-10-12T11:11:00.408Z,15.35
2022-10-12T11:13:35.547Z,15.70
2022-10-12T11:16:12.251Z,15.75
2022-10-12T11:18:46.398Z,15.60
2022-10-12T11:21:21.359Z,14.75
2022-10-12T11:23:54.425Z,16.55
2022-10-12T11:26:30.652Z,15.32
2022-10-12T11:29:01.302Z,14.48
2022-10-12T11:31:35.188Z,16.80
2022-10-12T11:34:12.631Z,15.68
2022-10-12T11:37:07.529Z,15.63
2022-10-12T11:39:38.125Z,15.18
2022-10-12T11:42:22.152Z,14.55
2022-10-12T11:44:51.806Z,16.30
2022-10-12T11:47:33.082Z,14.60
2022-10-12T11:50:05.210Z,14.20
2022-10-12T11:52:46.685Z,16.15
2022-10-12T11:55:48.081Z,17.17
2022-10-12T11:58:36.352Z,15.18
2022-10-12T12:01:44.928Z,15.43
2022-10-12T12:04:43.355Z,14.77
2022-10-12T12:07:44.279Z,15.68
2022-10-12T12:11:06.367Z,17.17
2022-10-12T12:13:36.028Z,16.55
2022-10-12T12:16:34.558Z,14.52
2022-10-12T12:19:33.845Z,15.23
2022-10-12T12:22:33.207Z,14.57
2022-10-12T12:25:35.435Z,14.32
2022-10-12T12:28:20.749Z,14.50
2022-10-12T12:31:01.571Z,15.43
2022-10-12T12:33:32.953Z,13.55
2022-10-12T12:36:04.293Z,13.65
2022-10-12T12:38:34.613Z,12.82
2022-10-12T12:41:08.517Z,12.98
2022-10-12T12:43:52.333Z,13.15
2022-10-12T12:46:22.186Z,12.23
2022-10-12T12:49:05.244Z,11.27
2022-10-12T12:51:43.863Z,11.70
2022-10-12T12:54:23.272Z,11.43
2022-10-12T12:57:28.407Z,10.23
2022-10-12T13:00:16.506Z,11.73
2022-10-12T13:03:49.844Z,11.63
2022-10-12T13:07:24.195Z,11.52
2022-10-12T13:10:20.503Z,12.73
2022-10-12T13:13:07.165Z,11.40
2022-10-12T13:15:59.442Z,10.63
2022-10-12T13:18:52.726Z,9.52
2022-10-12T13:21:24.768Z,9.77
2022-10-12T13:24:03.328Z,8.65
2022-10-12T13:26:33.251Z,9.45
2022-10-12T13:29:03.920Z,9.30
2022-10-12T13:31:39.216Z,10.40
2022-10-12T13:34:17.950Z,10.23
2022-10-12T13:36:55.459Z,10.18
2022-10-12T13:39:24.099Z,10.20
2022-10-12T13:41:56.112Z,10.02
2022-10-12T13:44:27.525Z,10.98
2022-10-12T13:46:59.220Z,10.30
2022-10-12T13:49:32.408Z,10.32
2022-10-12T13:52:03.112Z,10.25
2022-10-12T13:54:39.800Z,10.68
2022-10-12T13:57:19.720Z,10.95
2022-10-12T13:59:52.551Z,12.57
2022-10-12T14:02:26.176Z,11.13
2022-10-12T14:04:57.766Z,10.82
2022-10-12T14:07:30.890Z,12.23
2022-10-12T14:10:05.421Z,10.52
2022-10-12T14:12:35.792Z,10.80
2022-10-12T14:15:06.929Z,11.38
2022-10-12T14:17:35.178Z,10.75
2022-10-12T14:20:19.851Z,11.20
2022-10-12T14:22:50.082Z,10.02
2022-10-12T14:25:21.908Z,10.60
2022-10-12T14:27:57.132Z,10.30
2022-10-12T14:30:29.771Z,9.77
2022-10-12T14:33:12.995Z,9.98
2022-10-12T14:35:46.708Z,10.35
2022-10-12T14:38:39.784Z,10.57
2022-10-12T14:41:35.352Z,11.07
2022-10-12T14:44:12.159Z,11.13
2022-10-12T14:46:43.166Z,10.43
2022-10-12T14:49:18.455Z,10.93
2022-10-12T14:51:49.749Z,9.95
2022-10-12T14:54:18.064Z,9.95
2022-10-12T14:56:46.423Z,9.30
2022-10-12T14:59:14.757Z,10.23
2022-10-12T15:01:46.309Z,9.05
2022-10-12T15:04:18.591Z,8.73
2022-10-12T15:06:50.853Z,9.32
2022-10-12T15:09:19.591Z,8.75
2022-10-12T15:11:47.842Z,8.40
2022-10-12T15:14:16.153Z,8.50
2022-10-12T15:16:44.396Z,9.10
2022-10-12T15:19:12.664Z,8.90
2022-10-12T15:21:42.056Z,8.00
2022-10-12T15:24:16.318Z,8.57
2022-10-12T15:26:44.551Z,10.20
2022-10-12T15:29:12.833Z,9.52
2022-10-12T15:31:41.087Z,10.13
2022-10-12T15:34:13.447Z,10.70
2022-10-12T15:36:42.090Z,11.75
2022-10-12T15:39:10.801Z,11.77
2022-10-12T15:41:40.387Z,12.32
2022-10-12T15:44:10.997Z,11.90
2022-10-12T15:46:39.473Z,12.80
2022-10-12T15:49:08.295Z,12.45
2022-10-12T15:51:41.463Z,11.70
2022-10-12T15:54:10.808Z,12.15
2022-10-12T15:56:40.672Z,11.70
2022-10-12T15:59:08.963Z,11.45
2022-10-12T16:01:38.586Z,11.73
2022-10-12T16:04:08.006Z,10.43
2022-10-12T16:06:36.649Z,11.00
2022-10-12T16:09:04.994Z,11.57
2022-10-12T16:11:33.213Z,11.27
2022-10-12T16:14:02.923Z,10.75
2022-10-12T16:16:32.276Z,11.27
2022-10-12T16:19:00.656Z,11.02
2022-10-12T16:21:28.946Z,11.00
2022-10-12T16:23:57.277Z,11.10
2022-10-12T16:26:27.268Z,11.93
2022-10-12T16:28:55.581Z,11.68
2022-10-12T16:31:25.303Z,14.32
2022-10-12T16:33:53.564Z,12.13
2022-10-12T16:36:21.851Z,16.13
2022-10-12T16:38:50.121Z,15.35
2022-10-12T16:41:18.759Z,14.07
2022-10-12T16:43:47.080Z,13.88
2022-10-12T16:46:15.369Z,10.60
2022-10-12T16:48:45.128Z,9.60
2022-10-12T16:51:14.495Z,10.73
2022-10-12T16:53:43.936Z,8.35
2022-10-12T16:56:12.307Z,8.30
2022-10-12T16:58:40.557Z,12.18
2022-10-12T17:01:11.190Z,8.85
2022-10-12T17:03:39.523Z,11.52
2022-10-12T17:06:10.695Z,23.65
2022-10-12T17:08:39.875Z,27.98
2022-10-12T17:11:09.424Z,32.80
2022-10-12T17:13:38.861Z,19.38
2022-10-12T17:16:34.828Z,10.90
2022-10-12T17:19:03.656Z,8.50
2022-10-12T17:21:33.482Z,8.52
2022-10-12T17:24:02.631Z,9.15
2022-10-12T17:26:31.512Z,9.20
2022-10-12T17:28:59.781Z,10.75
2022-10-12T17:31:28.703Z,11.75
2022-10-12T17:33:58.214Z,11.05
2022-10-12T17:36:28.380Z,11.20
2022-10-12T17:39:00.239Z,11.57
2022-10-12T17:41:30.037Z,10.73
2022-10-12T17:43:58.955Z,10.02
2022-10-12T17:46:28.087Z,9.93
2022-10-12T17:48:57.545Z,9.90
2022-10-12T17:51:25.929Z,8.80
2022-10-12T17:53:54.465Z,8.88
2022-10-12T17:56:24.203Z,9.70
2022-10-12T17:58:55.867Z,10.02
2022-10-12T18:01:25.099Z,10.77
2022-10-12T18:04:06.432Z,8.20
2022-10-12T18:06:35.429Z,8.15
2022-10-12T18:09:05.746Z,8.25
2022-10-12T18:11:36.727Z,8.45
2022-10-12T18:14:05.051Z,8.15
2022-10-12T18:16:35.392Z,8.70
2022-10-12T18:19:05.282Z,8.82
2022-10-12T18:21:34.795Z,8.23
2022-10-12T18:24:05.326Z,8.07
2022-10-12T18:26:35.028Z,8.43
2022-10-12T18:29:05.172Z,7.85
2022-10-12T18:31:33.376Z,8.30
2022-10-12T18:34:02.719Z,8.88
2022-10-12T18:36:30.965Z,9.05
2022-10-12T18:39:02.320Z,8.65
2022-10-12T18:41:31.271Z,8.88
2022-10-12T18:44:02.626Z,9.40
2022-10-12T18:46:33.923Z,8.40
2022-10-12T18:49:05.266Z,9.98
2022-10-12T18:51:35.582Z,10.03
2022-10-12T18:54:05.933Z,13.80
2022-10-12T18:56:37.179Z,11.93
2022-10-12T18:59:07.915Z,33.37
2022-10-12T19:01:36.470Z,55.63
2022-10-12T19:04:06.753Z,42.67
2022-10-12T19:06:37.501Z,18.47
2022-10-12T19:09:06.851Z,13.27
2022-10-12T19:11:36.803Z,9.63
2022-10-12T19:14:09.050Z,9.13
2022-10-12T19:16:37.469Z,8.77
2022-10-12T19:19:08.666Z,8.73
2022-10-12T19:21:36.917Z,9.07
2022-10-12T19:24:10.518Z,9.03
2022-10-12T19:26:38.820Z,8.33
2022-10-12T19:29:08.579Z,8.70
2022-10-12T19:31:39.249Z,8.40
2022-10-12T19:34:11.008Z,8.97
2022-10-12T19:36:40.272Z,9.33
2022-10-12T19:39:10.868Z,10.00
2022-10-12T19:41:39.627Z,10.10
2022-10-12T19:44:09.539Z,11.43
2022-10-12T19:46:37.856Z,10.70
2022-10-12T19:49:06.702Z,8.70
2022-10-12T19:51:35.036Z,8.80
2022-10-12T19:54:05.171Z,9.03
2022-10-12T19:56:34.626Z,8.47
2022-10-12T19:59:03.034Z,8.73
2022-10-12T20:01:36.791Z,8.20
2022-10-12T20:04:09.898Z,8.57
2022-10-12T20:06:44.018Z,9.10
2022-10-12T20:09:12.352Z,8.77
2022-10-12T20:11:40.931Z,8.63
2022-10-12T20:14:09.565Z,8.80
2022-10-12T20:16:39.205Z,8.87
2022-10-12T20:19:08.077Z,8.23
2022-10-12T20:21:37.477Z,7.13
2022-10-12T20:24:09.711Z,7.67
2022-10-12T20:26:37.932Z,6.97
2022-10-12T20:29:06.249Z,8.00
2022-10-12T20:31:34.519Z,8.10
2022-10-12T20:34:04.266Z,7.30
2022-10-12T20:36:32.892Z,7.40
2022-10-12T20:39:01.775Z,9.33
2022-10-12T20:41:30.041Z,9.40
2022-10-12T20:44:00.298Z,9.37
2022-10-12T20:46:30.078Z,8.43
2022-10-12T20:49:01.122Z,10.87
2022-10-12T20:51:34.004Z,10.50
2022-10-12T20:54:04.125Z,8.93
2022-10-12T20:56:34.207Z,9.13
2022-10-12T20:59:03.117Z,10.07
2022-10-12T21:01:31.386Z,9.90
2022-10-12T21:03:59.719Z,11.10
2022-10-12T21:06:28.798Z,10.40
2022-10-12T21:08:59.211Z,10.60
2022-10-12T21:11:27.594Z,10.03
2022-10-12T21:13:56.955Z,8.50
2022-10-12T21:16:27.043Z,7.83
2022-10-12T21:18:56.312Z,6.83
2022-10-12T21:21:25.063Z,7.20
2022-10-12T21:23:55.732Z,6.47
2022-10-12T21:26:27.668Z,6.20
2022-10-12T21:28:56.387Z,7.13
2022-10-12T21:31:29.517Z,7.20
2022-10-12T21:34:01.129Z,7.00
2022-10-12T21:36:30.808Z,7.70
2022-10-12T21:38:59.400Z,7.27
2022-10-12T21:41:31.194Z,7.20
2022-10-12T21:43:59.769Z,6.83
2022-10-12T21:46:30.484Z,6.93
2022-10-12T21:49:00.636Z,6.30
2022-10-12T21:51:31.048Z,6.33
2022-10-12T21:53:59.488Z,6.97
2022-10-12T21:56:32.158Z,6.63
2022-10-12T21:59:02.610Z,7.40
2022-10-12T22:01:34.713Z,6.50
2022-10-12T22:04:11.011Z,7.20
2022-10-12T22:06:39.320Z,7.67
2022-10-12T22:09:10.704Z,6.73
2022-10-12T22:11:40.447Z,6.17
2022-10-12T22:14:15.946Z,5.73
2022-10-12T22:16:44.897Z,6.00
2022-10-12T22:19:18.817Z,6.23
2022-10-12T22:21:48.460Z,5.97
2022-10-12T22:24:17.206Z,6.10
2022-10-12T22:26:46.909Z,6.07
2022-10-12T22:29:15.239Z,6.63
2022-10-12T22:31:44.441Z,6.80
2022-10-12T22:34:13.111Z,6.80
2022-10-12T22:36:41.404Z,6.03
2022-10-12T22:39:09.791Z,4.90
2022-10-12T22:41:37.998Z,5.20
2022-10-12T22:44:07.735Z,5.23
2022-10-12T22:46:36.410Z,5.07
2022-10-12T22:49:04.916Z,5.57
2022-10-12T22:51:35.405Z,5.70
2022-10-12T22:54:04.512Z,6.03
2022-10-12T22:56:32.908Z,6.13
2022-10-12T22:59:06.594Z,8.00
2022-10-12T23:01:36.877Z,7.53
2022-10-12T23:04:05.640Z,6.53
2022-10-12T23:06:34.093Z,5.70
2022-10-12T23:09:02.752Z,5.00
2022-10-12T23:11:31.647Z,5.90
2022-10-12T23:13:59.944Z,6.07
2022-10-12T23:16:31.382Z,5.27
2022-10-12T23:19:03.045Z,4.93
2022-10-12T23:21:33.761Z,4.73
2022-10-12T23:24:04.975Z,4.70
2022-10-12T23:26:33.833Z,5.07
2022-10-12T23:29:02.093Z,4.70
2022-10-12T23:31:31.602Z,4.90
2022-10-12T23:34:06.811Z,5.00
2022-10-12T23:36:35.757Z,4.93
2022-10-12T23:39:05.980Z,5.10
2022-10-12T23:41:34.708Z,5.20
2022-10-12T23:44:03.114Z,5.83
2022-10-12T23:46:31.515Z,6.17
2022-10-12T23:49:00.119Z,6.10
2022-10-12T23:51:29.733Z,6.73
2022-10-12T23:53:58.046Z,6.23
2022-10-12T23:56:26.359Z,5.57
2022-10-12T23:58:54.787Z,6.00
